sensor_id;sensor_type;location;lat;lon;timestamp;temperature;humidity
16283;DHT22;8249;48.708;9.030;2022-12-29T00:01:32;9.00;99.90
16283;DHT22;8249;48.708;9.030;2022-12-29T00:04:00;9.10;99.90
16283;DHT22;8249;48.708;9.030;2022-12-29T00:06:27;9.10;99.90
16283;DHT22;8249;48.708;9.030;2022-12-29T00:08:54;9.20;99.90
16283;DHT22;8249;48.708;9.030;2022-12-29T00:11:23;9.20;99.90
16283;DHT22;8249;48.708;9.030;2022-12-29T00:13:50;9.20;99.90
16283;DHT22;8249;48.708;9.030;2022-12-29T00:16:36;9.30;99.90
16283;DHT22;8249;48.708;9.030;2022-12-29T00:19:05;9.30;99.90
16283;DHT22;8249;48.708;9.030;2022-12-29T00:21:52;9.30;99.90
16283;DHT22;8249;48.708;9.030;2022-12-29T00:24:37;9.30;99.90
16283;DHT22;8249;48.708;9.030;2022-12-29T00:27:21;9.30;99.90
16283;DHT22;8249;48.708;9.030;2022-12-29T00:30:09;9.30;99.90
16283;DHT22;8249;48.708;9.030;2022-12-29T00:32:54;9.30;99.90
16283;DHT22;8249;48.708;9.030;2022-12-29T00:35:46;9.30;99.90
16283;DHT22;8249;48.708;9.030;2022-12-29T00:38:19;9.30;99.90
16283;DHT22;8249;48.708;9.030;2022-12-29T00:41:04;9.20;99.90
16283;DHT22;8249;48.708;9.030;2022-12-29T00:43:49;9.30;99.90
16283;DHT22;8249;48.708;9.030;2022-12-29T00:46:37;9.40;99.90
16283;DHT22;8249;48.708;9.030;2022-12-29T00:49:05;9.50;99.90
16283;DHT22;8249;48.708;9.030;2022-12-29T00:51:52;9.50;99.90
16283;DHT22;8249;48.708;9.030;2022-12-29T00:54:21;9.60;99.90
16283;DHT22;8249;48.708;9.030;2022-12-29T00:56:49;9.70;99.90
16283;DHT22;8249;48.708;9.030;2022-12-29T00:59:17;9.60;99.90
16283;DHT22;8249;48.708;9.030;2022-12-29T01:01:46;9.60;99.90
16283;DHT22;8249;48.708;9.030;2022-12-29T01:04:13;9.60;99.90
16283;DHT22;8249;48.708;9.030;2022-12-29T01:06:40;9.60;99.90
16283;DHT22;8249;48.708;9.030;2022-12-29T01:09:09;9.50;99.90
16283;DHT22;8249;48.708;9.030;2022-12-29T01:11:54;9.60;99.90
16283;DHT22;8249;48.708;9.030;2022-12-29T01:14:22;9.60;99.90
16283;DHT22;8249;48.708;9.030;2022-12-29T01:16:50;9.70;99.90
16283;DHT22;8249;48.708;9.030;2022-12-29T01:19:17;9.70;99.90
16283;DHT22;8249;48.708;9.030;2022-12-29T01:21:44;9.80;99.90
16283;DHT22;8249;48.708;9.030;2022-12-29T01:24:13;9.80;99.90
16283;DHT22;8249;48.708;9.030;2022-12-29T01:26:40;9.80;99.90
16283;DHT22;8249;48.708;9.030;2022-12-29T01:29:08;9.80;99.90
16283;DHT22;8249;48.708;9.030;2022-12-29T01:31:35;9.80;99.90
16283;DHT22;8249;48.708;9.030;2022-12-29T01:34:02;9.90;99.90
16283;DHT22;8249;48.708;9.030;2022-12-29T01:36:29;9.90;99.90
16283;DHT22;8249;48.708;9.030;2022-12-29T01:38:58;9.90;99.90
16283;DHT22;8249;48.708;9.030;2022-12-29T01:41:26;9.90;99.90
16283;DHT22;8249;48.708;9.030;2022-12-29T01:43:56;9.90;99.90
16283;DHT22;8249;48.708;9.030;2022-12-29T01:46:27;9.90;99.90
16283;DHT22;8249;48.708;9.030;2022-12-29T01:49:00;9.90;99.90
16283;DHT22;8249;48.708;9.030;2022-12-29T01:51:31;10.00;99.90
16283;DHT22;8249;48.708;9.030;2022-12-29T01:54:04;9.90;99.90
16283;DHT22;8249;48.708;9.030;2022-12-29T01:56:34;9.90;99.90
16283;DHT22;8249;48.708;9.030;2022-12-29T01:59:05;9.90;99.90
16283;DHT22;8249;48.708;9.030;2022-12-29T02:01:37;9.90;99.90
16283;DHT22;8249;48.708;9.030;2022-12-29T02:04:04;9.80;99.90
16283;DHT22;8249;48.708;9.030;2022-12-29T02:06:35;10.00;99.90
16283;DHT22;8249;48.708;9.030;2022-12-29T02:09:05;10.00;99.90
16283;DHT22;8249;48.708;9.030;2022-12-29T02:11:35;10.20;99.90
16283;DHT22;8249;48.708;9.030;2022-12-29T02:14:08;10.10;99.90
16283;DHT22;8249;48.708;9.030;2022-12-29T02:16:44;10.10;99.90
16283;DHT22;8249;48.708;9.030;2022-12-29T02:22:31;10.10;99.90
16283;DHT22;8249;48.708;9.030;2022-12-29T02:28:41;10.10;99.90
16283;DHT22;8249;48.708;9.030;2022-12-29T02:31:18;10.10;99.90
16283;DHT22;8249;48.708;9.030;2022-12-29T02:33:57;10.10;99.90
16283;DHT22;8249;48.708;9.030;2022-12-29T02:36:35;10.10;99.90
16283;DHT22;8249;48.708;9.030;2022-12-29T02:39:09;10.20;99.90
16283;DHT22;8249;48.708;9.030;2022-12-29T02:41:46;10.20;99.90
16283;DHT22;8249;48.708;9.030;2022-12-29T02:44:23;10.30;99.90
16283;DHT22;8249;48.708;9.030;2022-12-29T02:46:56;10.30;99.90
16283;DHT22;8249;48.708;9.030;2022-12-29T02:49:29;10.40;99.90
16283;DHT22;8249;48.708;9.030;2022-12-29T02:52:01;10.40;99.90
16283;DHT22;8249;48.708;9.030;2022-12-29T02:54:29;10.40;99.90
16283;DHT22;8249;48.708;9.030;2022-12-29T02:57:12;10.40;99.90
16283;DHT22;8249;48.708;9.030;2022-12-29T02:59:40;10.40;99.90
16283;DHT22;8249;48.708;9.030;2022-12-29T03:02:33;10.60;99.90
16283;DHT22;8249;48.708;9.030;2022-12-29T03:05:20;10.70;99.90
16283;DHT22;8249;48.708;9.030;2022-12-29T03:07:55;10.80;99.90
16283;DHT22;8249;48.708;9.030;2022-12-29T03:10:35;10.80;99.90
16283;DHT22;8249;48.708;9.030;2022-12-29T03:13:10;10.80;99.90
16283;DHT22;8249;48.708;9.030;2022-12-29T03:16:03;11.00;99.90
16283;DHT22;8249;48.708;9.030;2022-12-29T03:18:47;11.00;99.90
16283;DHT22;8249;48.708;9.030;2022-12-29T03:21:22;11.00;99.90
16283;DHT22;8249;48.708;9.030;2022-12-29T03:24:15;11.00;99.90
16283;DHT22;8249;48.708;9.030;2022-12-29T03:26:47;11.00;99.90
16283;DHT22;8249;48.708;9.030;2022-12-29T03:29:18;11.00;99.90
16283;DHT22;8249;48.708;9.030;2022-12-29T03:31:48;11.00;99.90
16283;DHT22;8249;48.708;9.030;2022-12-29T03:34:20;11.00;99.90
16283;DHT22;8249;48.708;9.030;2022-12-29T03:36:52;11.00;99.90
16283;DHT22;8249;48.708;9.030;2022-12-29T03:39:21;11.00;99.90
16283;DHT22;8249;48.708;9.030;2022-12-29T03:41:52;11.00;99.90
16283;DHT22;8249;48.708;9.030;2022-12-29T03:44:31;11.00;99.90
16283;DHT22;8249;48.708;9.030;2022-12-29T03:46:59;11.00;99.90
16283;DHT22;8249;48.708;9.030;2022-12-29T03:49:28;10.90;99.90
16283;DHT22;8249;48.708;9.030;2022-12-29T03:51:56;10.90;99.90
16283;DHT22;8249;48.708;9.030;2022-12-29T03:54:23;10.80;99.90
16283;DHT22;8249;48.708;9.030;2022-12-29T03:56:51;10.70;99.90
16283;DHT22;8249;48.708;9.030;2022-12-29T03:59:29;10.70;99.90
16283;DHT22;8249;48.708;9.030;2022-12-29T04:01:56;10.70;99.90
16283;DHT22;8249;48.708;9.030;2022-12-29T04:04:24;10.60;99.90
16283;DHT22;8249;48.708;9.030;2022-12-29T04:06:52;10.60;99.90
16283;DHT22;8249;48.708;9.030;2022-12-29T04:09:19;10.50;99.90
16283;DHT22;8249;48.708;9.030;2022-12-29T04:11:48;10.50;99.90
16283;DHT22;8249;48.708;9.030;2022-12-29T04:14:15;10.50;99.90
16283;DHT22;8249;48.708;9.030;2022-12-29T04:16:42;10.60;99.90
16283;DHT22;8249;48.708;9.030;2022-12-29T04:19:09;10.60;99.90
16283;DHT22;8249;48.708;9.030;2022-12-29T04:21:36;10.40;99.90
16283;DHT22;8249;48.708;9.030;2022-12-29T04:24:06;10.40;99.90
16283;DHT22;8249;48.708;9.030;2022-12-29T04:26:37;10.40;99.90
16283;DHT22;8249;48.708;9.030;2022-12-29T04:29:23;10.50;99.90
16283;DHT22;8249;48.708;9.030;2022-12-29T04:32:17;10.50;99.90
16283;DHT22;8249;48.708;9.030;2022-12-29T04:34:47;10.40;99.90
16283;DHT22;8249;48.708;9.030;2022-12-29T04:37:14;10.40;99.90
16283;DHT22;8249;48.708;9.030;2022-12-29T04:39:43;10.30;99.90
16283;DHT22;8249;48.708;9.030;2022-12-29T04:42:11;10.30;99.90
16283;DHT22;8249;48.708;9.030;2022-12-29T04:44:38;10.40;99.90
16283;DHT22;8249;48.708;9.030;2022-12-29T04:47:16;10.40;99.90
16283;DHT22;8249;48.708;9.030;2022-12-29T04:49:56;10.50;99.90
16283;DHT22;8249;48.708;9.030;2022-12-29T04:52:49;10.50;99.90
16283;DHT22;8249;48.708;9.030;2022-12-29T04:55:18;10.60;99.90
16283;DHT22;8249;48.708;9.030;2022-12-29T04:57:48;10.60;99.90
16283;DHT22;8249;48.708;9.030;2022-12-29T05:00:18;10.60;99.90
16283;DHT22;8249;48.708;9.030;2022-12-29T05:02:46;10.60;99.90
16283;DHT22;8249;48.708;9.030;2022-12-29T05:05:14;10.60;99.90
16283;DHT22;8249;48.708;9.030;2022-12-29T05:07:45;10.60;99.90
16283;DHT22;8249;48.708;9.030;2022-12-29T05:10:12;10.50;99.90
16283;DHT22;8249;48.708;9.030;2022-12-29T05:12:40;10.50;99.90
16283;DHT22;8249;48.708;9.030;2022-12-29T05:15:08;10.50;99.90
16283;DHT22;8249;48.708;9.030;2022-12-29T05:17:36;10.50;99.90
16283;DHT22;8249;48.708;9.030;2022-12-29T05:20:04;10.50;99.90
16283;DHT22;8249;48.708;9.030;2022-12-29T05:22:32;10.50;99.90
16283;DHT22;8249;48.708;9.030;2022-12-29T05:25:00;10.50;99.90
16283;DHT22;8249;48.708;9.030;2022-12-29T05:27:27;10.50;99.90
16283;DHT22;8249;48.708;9.030;2022-12-29T05:30:19;10.50;99.90
16283;DHT22;8249;48.708;9.030;2022-12-29T05:32:47;10.50;99.90
16283;DHT22;8249;48.708;9.030;2022-12-29T05:35:14;10.50;99.90
16283;DHT22;8249;48.708;9.030;2022-12-29T05:37:41;10.50;99.90
16283;DHT22;8249;48.708;9.030;2022-12-29T05:40:09;10.60;99.90
16283;DHT22;8249;48.708;9.030;2022-12-29T05:42:36;10.60;99.90
16283;DHT22;8249;48.708;9.030;2022-12-29T05:45:40;10.60;99.90
16283;DHT22;8249;48.708;9.030;2022-12-29T05:48:26;10.70;99.90
16283;DHT22;8249;48.708;9.030;2022-12-29T05:51:15;10.70;99.90
16283;DHT22;8249;48.708;9.030;2022-12-29T05:53:47;10.80;99.90
16283;DHT22;8249;48.708;9.030;2022-12-29T05:56:15;10.90;99.90
16283;DHT22;8249;48.708;9.030;2022-12-29T05:58:42;10.90;99.90
16283;DHT22;8249;48.708;9.030;2022-12-29T06:01:11;11.00;99.90
16283;DHT22;8249;48.708;9.030;2022-12-29T06:03:38;11.00;99.90
16283;DHT22;8249;48.708;9.030;2022-12-29T06:06:06;11.00;99.90
16283;DHT22;8249;48.708;9.030;2022-12-29T06:08:33;11.00;99.90
16283;DHT22;8249;48.708;9.030;2022-12-29T06:11:01;11.00;99.90
16283;DHT22;8249;48.708;9.030;2022-12-29T06:13:28;11.00;99.90
16283;DHT22;8249;48.708;9.030;2022-12-29T06:15:56;11.00;99.90
16283;DHT22;8249;48.708;9.030;2022-12-29T06:18:26;11.00;99.90
16283;DHT22;8249;48.708;9.030;2022-12-29T06:20:58;11.00;99.90
16283;DHT22;8249;48.708;9.030;2022-12-29T06:23:25;11.00;99.90
16283;DHT22;8249;48.708;9.030;2022-12-29T06:25:53;11.00;99.90
16283;DHT22;8249;48.708;9.030;2022-12-29T06:28:21;11.10;99.90
16283;DHT22;8249;48.708;9.030;2022-12-29T06:30:48;11.10;99.90
16283;DHT22;8249;48.708;9.030;2022-12-29T06:33:17;11.00;99.90
16283;DHT22;8249;48.708;9.030;2022-12-29T06:35:45;11.00;99.90
16283;DHT22;8249;48.708;9.030;2022-12-29T06:38:13;10.90;99.90
16283;DHT22;8249;48.708;9.030;2022-12-29T06:40:42;10.80;99.90
16283;DHT22;8249;48.708;9.030;2022-12-29T06:43:19;10.80;99.90
16283;DHT22;8249;48.708;9.030;2022-12-29T06:46:07;10.80;99.90
16283;DHT22;8249;48.708;9.030;2022-12-29T06:48:34;10.70;99.90
16283;DHT22;8249;48.708;9.030;2022-12-29T06:51:19;10.70;99.90
16283;DHT22;8249;48.708;9.030;2022-12-29T06:53:46;10.60;99.90
16283;DHT22;8249;48.708;9.030;2022-12-29T06:56:12;10.50;99.90
16283;DHT22;8249;48.708;9.030;2022-12-29T06:58:39;10.40;99.90
16283;DHT22;8249;48.708;9.030;2022-12-29T07:01:06;10.40;99.90
16283;DHT22;8249;48.708;9.030;2022-12-29T07:03:33;10.40;99.90
16283;DHT22;8249;48.708;9.030;2022-12-29T07:06:00;10.40;99.90
16283;DHT22;8249;48.708;9.030;2022-12-29T07:08:29;10.30;99.90
16283;DHT22;8249;48.708;9.030;2022-12-29T07:10:56;10.20;99.90
16283;DHT22;8249;48.708;9.030;2022-12-29T07:13:23;10.20;99.90
16283;DHT22;8249;48.708;9.030;2022-12-29T07:15:50;10.20;99.90
16283;DHT22;8249;48.708;9.030;2022-12-29T07:18:17;10.10;99.90
16283;DHT22;8249;48.708;9.030;2022-12-29T07:20:44;10.10;99.90
16283;DHT22;8249;48.708;9.030;2022-12-29T07:23:11;10.10;99.90
16283;DHT22;8249;48.708;9.030;2022-12-29T07:25:39;10.10;99.90
16283;DHT22;8249;48.708;9.030;2022-12-29T07:28:07;10.10;99.90
16283;DHT22;8249;48.708;9.030;2022-12-29T07:30:36;10.20;99.90
16283;DHT22;8249;48.708;9.030;2022-12-29T07:33:03;10.20;99.90
16283;DHT22;8249;48.708;9.030;2022-12-29T07:35:30;10.20;99.90
16283;DHT22;8249;48.708;9.030;2022-12-29T07:37:57;10.20;99.90
16283;DHT22;8249;48.708;9.030;2022-12-29T07:40:25;10.30;99.90
16283;DHT22;8249;48.708;9.030;2022-12-29T07:42:53;10.30;99.90
16283;DHT22;8249;48.708;9.030;2022-12-29T07:45:29;10.30;99.90
16283;DHT22;8249;48.708;9.030;2022-12-29T07:48:17;10.30;99.90
16283;DHT22;8249;48.708;9.030;2022-12-29T07:50:44;10.30;99.90
16283;DHT22;8249;48.708;9.030;2022-12-29T07:53:11;10.40;99.90
16283;DHT22;8249;48.708;9.030;2022-12-29T07:55:38;10.40;99.90
16283;DHT22;8249;48.708;9.030;2022-12-29T07:58:07;10.40;99.90
16283;DHT22;8249;48.708;9.030;2022-12-29T08:00:34;10.40;99.90
16283;DHT22;8249;48.708;9.030;2022-12-29T08:03:02;10.40;99.90
16283;DHT22;8249;48.708;9.030;2022-12-29T08:05:30;10.40;99.90
16283;DHT22;8249;48.708;9.030;2022-12-29T08:07:57;10.50;99.90
16283;DHT22;8249;48.708;9.030;2022-12-29T08:10:25;10.50;99.90
16283;DHT22;8249;48.708;9.030;2022-12-29T08:12:54;10.50;99.90
16283;DHT22;8249;48.708;9.030;2022-12-29T08:15:22;10.60;99.90
16283;DHT22;8249;48.708;9.030;2022-12-29T08:17:49;10.60;99.90
16283;DHT22;8249;48.708;9.030;2022-12-29T08:20:16;10.60;99.90
16283;DHT22;8249;48.708;9.030;2022-12-29T08:22:43;10.60;99.90
16283;DHT22;8249;48.708;9.030;2022-12-29T08:25:10;10.60;99.90
16283;DHT22;8249;48.708;9.030;2022-12-29T08:27:37;10.70;99.90
16283;DHT22;8249;48.708;9.030;2022-12-29T08:30:05;10.70;99.90
16283;DHT22;8249;48.708;9.030;2022-12-29T08:32:33;10.70;99.90
16283;DHT22;8249;48.708;9.030;2022-12-29T08:35:00;10.80;99.90
16283;DHT22;8249;48.708;9.030;2022-12-29T08:37:27;10.80;99.90
16283;DHT22;8249;48.708;9.030;2022-12-29T08:39:54;10.90;99.90
16283;DHT22;8249;48.708;9.030;2022-12-29T08:42:21;10.80;99.90
16283;DHT22;8249;48.708;9.030;2022-12-29T08:44:51;10.80;99.90
16283;DHT22;8249;48.708;9.030;2022-12-29T08:47:17;10.80;99.90
16283;DHT22;8249;48.708;9.030;2022-12-29T08:49:46;10.80;99.90
16283;DHT22;8249;48.708;9.030;2022-12-29T08:52:14;10.70;99.90
16283;DHT22;8249;48.708;9.030;2022-12-29T08:54:41;10.70;99.90
16283;DHT22;8249;48.708;9.030;2022-12-29T08:57:08;10.70;99.90
16283;DHT22;8249;48.708;9.030;2022-12-29T08:59:48;10.80;99.90
16283;DHT22;8249;48.708;9.030;2022-12-29T09:02:15;10.80;99.90
16283;DHT22;8249;48.708;9.030;2022-12-29T09:04:42;10.90;99.90
16283;DHT22;8249;48.708;9.030;2022-12-29T09:07:10;10.90;99.90
16283;DHT22;8249;48.708;9.030;2022-12-29T09:09:38;11.00;99.90
16283;DHT22;8249;48.708;9.030;2022-12-29T09:12:05;11.20;99.90
16283;DHT22;8249;48.708;9.030;2022-12-29T09:14:32;11.20;99.90
16283;DHT22;8249;48.708;9.030;2022-12-29T09:16:59;11.30;99.90
16283;DHT22;8249;48.708;9.030;2022-12-29T09:19:43;11.30;99.90
16283;DHT22;8249;48.708;9.030;2022-12-29T09:22:11;11.40;99.90
16283;DHT22;8249;48.708;9.030;2022-12-29T09:24:38;11.50;99.90
16283;DHT22;8249;48.708;9.030;2022-12-29T09:27:05;11.70;99.90
16283;DHT22;8249;48.708;9.030;2022-12-29T09:29:32;11.90;99.90
16283;DHT22;8249;48.708;9.030;2022-12-29T09:31:59;12.00;99.90
16283;DHT22;8249;48.708;9.030;2022-12-29T09:34:26;12.10;99.90
16283;DHT22;8249;48.708;9.030;2022-12-29T09:36:53;12.20;99.90
16283;DHT22;8249;48.708;9.030;2022-12-29T09:39:23;12.40;99.90
16283;DHT22;8249;48.708;9.030;2022-12-29T09:42:00;12.50;99.90
16283;DHT22;8249;48.708;9.030;2022-12-29T09:44:35;12.50;99.90
16283;DHT22;8249;48.708;9.030;2022-12-29T09:47:05;12.50;99.90
16283;DHT22;8249;48.708;9.030;2022-12-29T09:49:39;12.50;99.90
16283;DHT22;8249;48.708;9.030;2022-12-29T09:52:16;12.60;99.90
16283;DHT22;8249;48.708;9.030;2022-12-29T09:54:52;12.60;99.90
16283;DHT22;8249;48.708;9.030;2022-12-29T09:57:23;12.60;99.90
16283;DHT22;8249;48.708;9.030;2022-12-29T09:59:54;12.60;99.90
16283;DHT22;8249;48.708;9.030;2022-12-29T10:02:32;12.80;99.90
16283;DHT22;8249;48.708;9.030;2022-12-29T10:05:00;12.80;99.90
16283;DHT22;8249;48.708;9.030;2022-12-29T10:07:36;12.80;99.90
16283;DHT22;8249;48.708;9.030;2022-12-29T10:10:20;12.70;99.90
16283;DHT22;8249;48.708;9.030;2022-12-29T10:13:01;12.60;99.90
16283;DHT22;8249;48.708;9.030;2022-12-29T10:15:40;12.50;99.90
16283;DHT22;8249;48.708;9.030;2022-12-29T10:18:27;12.60;99.90
16283;DHT22;8249;48.708;9.030;2022-12-29T10:21:04;12.60;99.90
16283;DHT22;8249;48.708;9.030;2022-12-29T10:23:37;13.00;99.90
16283;DHT22;8249;48.708;9.030;2022-12-29T10:26:10;13.00;99.90
16283;DHT22;8249;48.708;9.030;2022-12-29T10:28:43;13.00;99.90
16283;DHT22;8249;48.708;9.030;2022-12-29T10:31:15;13.20;99.90
16283;DHT22;8249;48.708;9.030;2022-12-29T10:33:46;13.50;99.90
16283;DHT22;8249;48.708;9.030;2022-12-29T10:36:18;13.70;99.90
16283;DHT22;8249;48.708;9.030;2022-12-29T10:38:53;14.10;99.90
16283;DHT22;8249;48.708;9.030;2022-12-29T10:41:28;14.80;99.90
16283;DHT22;8249;48.708;9.030;2022-12-29T10:44:00;15.10;99.90
16283;DHT22;8249;48.708;9.030;2022-12-29T10:46:31;15.60;99.90
16283;DHT22;8249;48.708;9.030;2022-12-29T10:49:02;16.10;99.90
16283;DHT22;8249;48.708;9.030;2022-12-29T10:51:32;16.40;99.90
16283;DHT22;8249;48.708;9.030;2022-12-29T10:54:03;16.50;99.90
16283;DHT22;8249;48.708;9.030;2022-12-29T10:56:35;16.50;99.90
16283;DHT22;8249;48.708;9.030;2022-12-29T10:59:06;16.80;99.90
16283;DHT22;8249;48.708;9.030;2022-12-29T11:01:40;16.40;99.90
16283;DHT22;8249;48.708;9.030;2022-12-29T11:04:35;15.50;99.90
16283;DHT22;8249;48.708;9.030;2022-12-29T11:07:06;14.50;99.90
16283;DHT22;8249;48.708;9.030;2022-12-29T11:09:36;13.90;99.90
16283;DHT22;8249;48.708;9.030;2022-12-29T11:12:19;13.60;99.90
16283;DHT22;8249;48.708;9.030;2022-12-29T11:14:46;13.40;99.90
16283;DHT22;8249;48.708;9.030;2022-12-29T11:17:16;13.40;99.90
16283;DHT22;8249;48.708;9.030;2022-12-29T11:19:43;13.60;99.90
16283;DHT22;8249;48.708;9.030;2022-12-29T11:22:20;13.50;99.90
16283;DHT22;8249;48.708;9.030;2022-12-29T11:24:49;13.30;99.90
16283;DHT22;8249;48.708;9.030;2022-12-29T11:27:19;13.00;99.90
16283;DHT22;8249;48.708;9.030;2022-12-29T11:29:55;12.90;99.90
16283;DHT22;8249;48.708;9.030;2022-12-29T11:32:25;12.70;99.90
16283;DHT22;8249;48.708;9.030;2022-12-29T11:34:52;12.40;99.90
16283;DHT22;8249;48.708;9.030;2022-12-29T11:37:23;12.40;99.90
16283;DHT22;8249;48.708;9.030;2022-12-29T11:39:56;12.50;99.90
16283;DHT22;8249;48.708;9.030;2022-12-29T11:42:35;13.10;99.90
16283;DHT22;8249;48.708;9.030;2022-12-29T11:45:06;13.10;99.90
16283;DHT22;8249;48.708;9.030;2022-12-29T11:47:33;13.00;99.90
16283;DHT22;8249;48.708;9.030;2022-12-29T11:50:05;12.90;99.90
16283;DHT22;8249;48.708;9.030;2022-12-29T11:52:35;12.60;99.90
16283;DHT22;8249;48.708;9.030;2022-12-29T11:55:13;12.30;99.90
16283;DHT22;8249;48.708;9.030;2022-12-29T11:57:44;12.20;99.90
16283;DHT22;8249;48.708;9.030;2022-12-29T12:00:16;12.10;99.90
16283;DHT22;8249;48.708;9.030;2022-12-29T12:02:50;12.00;99.90
16283;DHT22;8249;48.708;9.030;2022-12-29T12:05:28;11.90;99.90
16283;DHT22;8249;48.708;9.030;2022-12-29T12:08:04;11.90;99.90
16283;DHT22;8249;48.708;9.030;2022-12-29T12:10:36;11.80;99.90
16283;DHT22;8249;48.708;9.030;2022-12-29T12:13:17;11.80;99.90
16283;DHT22;8249;48.708;9.030;2022-12-29T12:15:49;11.80;99.90
16283;DHT22;8249;48.708;9.030;2022-12-29T12:18:24;11.80;99.90
16283;DHT22;8249;48.708;9.030;2022-12-29T12:20:57;11.80;99.90
16283;DHT22;8249;48.708;9.030;2022-12-29T12:23:32;11.80;99.90
16283;DHT22;8249;48.708;9.030;2022-12-29T12:26:10;11.80;99.90
16283;DHT22;8249;48.708;9.030;2022-12-29T12:28:45;11.80;99.90
16283;DHT22;8249;48.708;9.030;2022-12-29T12:31:22;11.80;99.90
16283;DHT22;8249;48.708;9.030;2022-12-29T12:33:54;11.80;99.90
16283;DHT22;8249;48.708;9.030;2022-12-29T12:36:44;11.60;99.90
16283;DHT22;8249;48.708;9.030;2022-12-29T12:39:21;11.50;99.90
16283;DHT22;8249;48.708;9.030;2022-12-29T12:41:59;11.40;99.90
16283;DHT22;8249;48.708;9.030;2022-12-29T12:44:36;11.40;99.90
16283;DHT22;8249;48.708;9.030;2022-12-29T12:47:29;11.40;99.90
16283;DHT22;8249;48.708;9.030;2022-12-29T12:50:14;11.50;99.90
16283;DHT22;8249;48.708;9.030;2022-12-29T12:53:19;11.70;99.90
16283;DHT22;8249;48.708;9.030;2022-12-29T12:56:08;12.00;99.90
16283;DHT22;8249;48.708;9.030;2022-12-29T12:58:43;13.10;99.90
16283;DHT22;8249;48.708;9.030;2022-12-29T13:01:25;14.20;99.90
16283;DHT22;8249;48.708;9.030;2022-12-29T13:04:12;15.20;99.90
16283;DHT22;8249;48.708;9.030;2022-12-29T13:06:50;15.10;99.90
16283;DHT22;8249;48.708;9.030;2022-12-29T13:09:31;14.90;99.90
16283;DHT22;8249;48.708;9.030;2022-12-29T13:12:09;14.20;99.90
16283;DHT22;8249;48.708;9.030;2022-12-29T13:14:46;14.20;99.90
16283;DHT22;8249;48.708;9.030;2022-12-29T13:17:22;14.40;99.90
16283;DHT22;8249;48.708;9.030;2022-12-29T13:19:57;14.70;99.90
16283;DHT22;8249;48.708;9.030;2022-12-29T13:22:33;14.40;99.90
16283;DHT22;8249;48.708;9.030;2022-12-29T13:25:28;13.80;99.90
16283;DHT22;8249;48.708;9.030;2022-12-29T13:28:02;13.30;99.90
16283;DHT22;8249;48.708;9.030;2022-12-29T13:30:36;12.90;99.90
16283;DHT22;8249;48.708;9.030;2022-12-29T13:33:22;12.50;99.90
16283;DHT22;8249;48.708;9.030;2022-12-29T13:36:00;12.20;99.90
16283;DHT22;8249;48.708;9.030;2022-12-29T13:38:34;12.10;99.90
16283;DHT22;8249;48.708;9.030;2022-12-29T13:41:06;12.10;99.90
16283;DHT22;8249;48.708;9.030;2022-12-29T13:43:37;12.10;99.90
16283;DHT22;8249;48.708;9.030;2022-12-29T13:46:09;12.10;99.90
16283;DHT22;8249;48.708;9.030;2022-12-29T13:48:42;12.00;99.90
16283;DHT22;8249;48.708;9.030;2022-12-29T13:51:11;11.90;99.90
16283;DHT22;8249;48.708;9.030;2022-12-29T13:53:55;11.90;99.90
16283;DHT22;8249;48.708;9.030;2022-12-29T13:56:33;11.80;99.90
16283;DHT22;8249;48.708;9.030;2022-12-29T13:59:09;11.90;99.90
16283;DHT22;8249;48.708;9.030;2022-12-29T14:01:43;12.60;99.90
16283;DHT22;8249;48.708;9.030;2022-12-29T14:04:16;13.20;99.90
16283;DHT22;8249;48.708;9.030;2022-12-29T14:06:59;13.50;99.90
16283;DHT22;8249;48.708;9.030;2022-12-29T14:09:45;14.00;99.90
16283;DHT22;8249;48.708;9.030;2022-12-29T14:12:21;13.70;99.90
16283;DHT22;8249;48.708;9.030;2022-12-29T14:14:52;13.00;99.90
16283;DHT22;8249;48.708;9.030;2022-12-29T14:17:24;12.50;99.90
16283;DHT22;8249;48.708;9.030;2022-12-29T14:19:53;12.20;99.90
16283;DHT22;8249;48.708;9.030;2022-12-29T14:22:25;12.00;99.90
16283;DHT22;8249;48.708;9.030;2022-12-29T14:24:52;12.00;99.90
16283;DHT22;8249;48.708;9.030;2022-12-29T14:27:50;12.40;99.90
16283;DHT22;8249;48.708;9.030;2022-12-29T14:30:45;13.10;99.90
16283;DHT22;8249;48.708;9.030;2022-12-29T14:33:13;13.20;99.90
16283;DHT22;8249;48.708;9.030;2022-12-29T14:35:45;13.20;99.90
16283;DHT22;8249;48.708;9.030;2022-12-29T14:38:21;12.80;99.90
16283;DHT22;8249;48.708;9.030;2022-12-29T14:40:49;12.40;99.90
16283;DHT22;8249;48.708;9.030;2022-12-29T14:43:21;12.20;99.90
16283;DHT22;8249;48.708;9.030;2022-12-29T14:45:57;12.00;99.90
16283;DHT22;8249;48.708;9.030;2022-12-29T14:48:36;11.90;99.90
16283;DHT22;8249;48.708;9.030;2022-12-29T14:51:19;11.80;99.90
16283;DHT22;8249;48.708;9.030;2022-12-29T14:53:48;11.70;99.90
16283;DHT22;8249;48.708;9.030;2022-12-29T14:56:17;11.70;99.90
16283;DHT22;8249;48.708;9.030;2022-12-29T14:58:51;11.50;99.90
16283;DHT22;8249;48.708;9.030;2022-12-29T15:01:24;11.50;99.90
16283;DHT22;8249;48.708;9.030;2022-12-29T15:03:55;11.40;99.90
16283;DHT22;8249;48.708;9.030;2022-12-29T15:06:28;11.30;99.90
16283;DHT22;8249;48.708;9.030;2022-12-29T15:09:00;11.30;99.90
16283;DHT22;8249;48.708;9.030;2022-12-29T15:11:42;11.30;99.90
16283;DHT22;8249;48.708;9.030;2022-12-29T15:14:32;11.20;99.90
16283;DHT22;8249;48.708;9.030;2022-12-29T15:17:00;11.20;99.90
16283;DHT22;8249;48.708;9.030;2022-12-29T15:19:27;11.20;99.90
16283;DHT22;8249;48.708;9.030;2022-12-29T15:21:56;11.20;99.90
16283;DHT22;8249;48.708;9.030;2022-12-29T15:24:24;11.20;99.90
16283;DHT22;8249;48.708;9.030;2022-12-29T15:26:52;11.20;99.90
16283;DHT22;8249;48.708;9.030;2022-12-29T15:29:36;11.10;99.90
16283;DHT22;8249;48.708;9.030;2022-12-29T15:32:18;11.10;99.90
16283;DHT22;8249;48.708;9.030;2022-12-29T15:34:46;11.10;99.90
16283;DHT22;8249;48.708;9.030;2022-12-29T15:37:22;11.10;99.90
16283;DHT22;8249;48.708;9.030;2022-12-29T15:39:50;11.10;99.90
16283;DHT22;8249;48.708;9.030;2022-12-29T15:42:32;11.10;99.90
16283;DHT22;8249;48.708;9.030;2022-12-29T15:45:04;11.10;99.90
16283;DHT22;8249;48.708;9.030;2022-12-29T15:47:31;11.10;99.90
16283;DHT22;8249;48.708;9.030;2022-12-29T15:50:02;11.10;99.90
16283;DHT22;8249;48.708;9.030;2022-12-29T15:52:33;11.10;99.90
16283;DHT22;8249;48.708;9.030;2022-12-29T15:55:01;11.10;99.90
16283;DHT22;8249;48.708;9.030;2022-12-29T15:57:30;11.10;99.90
16283;DHT22;8249;48.708;9.030;2022-12-29T16:00:03;11.10;99.90
16283;DHT22;8249;48.708;9.030;2022-12-29T16:02:39;11.10;99.90
16283;DHT22;8249;48.708;9.030;2022-12-29T16:05:08;11.00;99.90
16283;DHT22;8249;48.708;9.030;2022-12-29T16:07:37;10.90;99.90
16283;DHT22;8249;48.708;9.030;2022-12-29T16:10:04;10.80;99.90
16283;DHT22;8249;48.708;9.030;2022-12-29T16:12:34;10.60;99.90
16283;DHT22;8249;48.708;9.030;2022-12-29T16:15:03;10.40;99.90
16283;DHT22;8249;48.708;9.030;2022-12-29T16:17:33;10.10;99.90
16283;DHT22;8249;48.708;9.030;2022-12-29T16:20:03;9.90;99.90
16283;DHT22;8249;48.708;9.030;2022-12-29T16:22:33;9.80;99.90
16283;DHT22;8249;48.708;9.030;2022-12-29T16:25:04;9.60;99.90
16283;DHT22;8249;48.708;9.030;2022-12-29T16:27:36;9.60;99.90
16283;DHT22;8249;48.708;9.030;2022-12-29T16:30:06;9.50;99.90